KLOZ/LOZ METAR and TAF weather

Enter ICAO airport designator
Station Type Date Time Source
KLOZ METAR 2021/06/24 06:53 UTC NOAA

KLOZ 240653Z AUTO 00000KT 10SM CLR 17/13 A3018 RMK AO2 SLP209 T01670133 $


Station Type Date Time Source
KLOZ Decoded METAR 2021/06/24 06:53 UTC NOAA

LONDON-CORBIN AIRPORT, KY, United States (KLOZ) 37-05N 084-04W 362M
Jun 24, 2021 - 02:53 AM EDT / 2021.06.24 0653 UTC
Wind: Calm:0
Visibility: 10 mile(s):0
Sky conditions: clear
Temperature: 62.1 F (16.7 C)
Dew Point: 55.9 F (13.3 C)
Relative Humidity: 80%
Pressure (altimeter): 30.18 in. Hg (1022 hPa)
ob: KLOZ 240653Z AUTO 00000KT 10SM CLR 17/13 A3018 RMK AO2 SLP209 T01670133
cycle: 7

Station Type Date Time Source
KLOZ TAF 2021/06/24 06:24 UTC NOAA

TAF KLOZ 240523Z 2406/2506 VRB03KT P6SM SKC

Example: see airport list